Flight Track Log - Related Links

Times and Time Zones

All times are in EST time to prevent confusion due to time zone crossing. See the N6ZQ flight status page for this flight to view local times or setup timezone preferences in your user account.

Time Position Orientation Groundspeed Altitude Reporting Facility
EST Latitude Longitude Course Direction KTS MPH feet Rate Location/Type
Sat 08:46:00 AM 30.0130 -82.3106 55° Northeast  Level Estimated
Sat 08:49:24 AM 30.1219 -82.5347 55° Northeast 188 216 3,000  Level Jacksonville Center
Sat 08:49:54 AM 30.0989 -82.5300 170° South 154 177 3,000  Level Jacksonville Center
Sat 08:50:24 AM 30.0803 -82.5206 156° South 169 194 3,000 109 Level Jacksonville Center
Sat 08:50:49 AM 30.0614 -82.5133 162° South 154 177 3,100  Climbing Jacksonville Center
Sat 08:51:24 AM 30.0447 -82.4992 144° Southeast 159 183 3,000  Descending Jacksonville Center
Sat 08:51:50 AM 30.0258 -82.4919 162° South 147 169 3,100  Climbing Jacksonville Center
Sat 08:52:24 AM 30.0092 -82.4775 143° Southeast 149 171 3,000  Descending Jacksonville Center
Sat 08:52:50 AM 29.9881 -82.4681 159° South 148 170 3,100  Climbing Jacksonville Center
Sat 08:53:24 AM 29.9736 -82.4561 144° Southeast 149 171 3,000  Descending Jacksonville Center
Sat 08:53:39 AM 29.9608 -82.4514 162° South 148 170 3,100  Climbing Jacksonville Center
Sat 08:54:24 AM 29.9400 -82.4275 135° Southeast 149 171 3,000  Descending Jacksonville Center
Sat 08:54:40 AM 29.9253 -82.4206 158° South 147 169 3,100  Climbing Jacksonville Center
Sat 08:55:24 AM 29.9086 -82.3989 132° Southeast 149 171 3,000  Descending Jacksonville Center
Sat 08:55:41 AM 29.8939 -82.3894 151° Southeast 149 171 3,100  Climbing Jacksonville Center
Sat 08:56:24 AM 29.8772 -82.3681 132° Southeast 149 171 3,000  Descending Jacksonville Center
Sat 08:56:47 AM 29.8583 -82.3561 151° Southeast 147 169 3,100  Climbing Jacksonville Center
Sat 08:57:24 AM 29.8436 -82.3419 140° Southeast 149 171 3,000  Descending Jacksonville Center
Sat 08:57:48 AM 29.8269 -82.3275 143° Southeast 147 169 3,100  Climbing Jacksonville Center
Sat 08:58:24 AM 29.8081 -82.3108 143° Southeast 149 171 3,000  Descending Jacksonville Center
Sat 08:58:49 AM 29.7933 -82.2992 145° Southeast 149 171 3,100 75 Climbing Jacksonville Center
Sat 08:59:44 AM 29.7639 -82.2728 142° Southeast 147 169 3,100  Level Jacksonville Center
Sat 09:00:44 AM 29.7344 -82.2394 135° Southeast 148 170 3,100  Level Jacksonville Center
Sat 09:01:45 AM 29.7092 -82.2014 127° Southeast 149 171 3,100 -492 Level Jacksonville Center
Sat 09:02:46 AM 29.7425 -82.1583 48° Northeast 193 222 2,100 -590 Descending Jacksonville Center
Sat 09:03:47 AM 29.7756 -82.1197 45° Northeast 173 199 1,900 -344 Descending Jacksonville Center
Sat 09:04:48 AM 29.8006 -82.0931 43° Northeast 100 115 1,400 -590 Descending Jacksonville Center
Sat 09:05:49 AM 29.8192 -82.0739 42° Northeast 83 96 700 -403 Descending Jacksonville Center
Sat 09:07:02 AM 29.8358 -82.0569 41° Northeast 80 92 500 -99 Descending Jacksonville Center
Sat 09:07:50 AM 29.8358 -82.0569 311° West 80 92 500  Level Jacksonville Center
Sat 09:09:52 AM 29.8358 -82.0569 311° West 80 92 500  Level Jacksonville Center
Sat 09:11:54 AM 29.8358 -82.0569 311° West 80 92 500  Level Jacksonville Center

Login

Don't have an account? Register now (free) for customized features, flight alerts, and more!